Terminal Aerodrome Forecast
Issued by NWS

Home | Current Version | Previous Version | Text Only | Print | Product List | Glossary On
Versions: 1 2 3 4 5 6 7 8 9 10 11 12 13 14 15 16
000
FTUS41 KBTV 281132
TAFMPV
TAF
KMPV 281132Z 2812/2912 00000KT 1/4SM FG VV004
     FM281500 00000KT P6SM VCSH OVC030
     FM281900 00000KT 4SM -SHRA BR OVC020
     FM282300 00000KT P6SM VCSH OVC008
     FM290300 00000KT 4SM BR VCSH OVC020
     FM290600 31004KT 1/4SM FG VV004=

USA.gov is the U.S. government's official web portal to all federal, state and local government web resources and services.